AEZ31GB LROP-LIRF
Flight info
| Callsign | AEZ31GB |
|---|---|
| Flight time | N/A |
| Altitude | 36000 |
| Route | POLUN DCT ANASA DCT MITNO DCT VELIT DCT VELUG/N0462F370 DCT ARSOB DCT ETRIN DCT ESODU/N0390F190 Z924 MOPUV |
| Aircraft | B738/M-SDE2E3FGHIRWXY/LB1 |
Departure
| Time | 2026-04-30 13:34 |
|---|---|
| Airport | Bucharest Henri Coandă International Airport (LROP) |
Arrival
| Time | N/A |
|---|---|
| Airport | Rome–Fiumicino Leonardo da Vinci International Airport (LIRF) |
| Time | Latitude | Longitude | Altitude | Speed | Heading |
|---|---|---|---|---|---|
| 2026-04-30 13:09 | 44.57256 | 26.07985 | 317 ft | 0 kts | 354° |
| 2026-04-30 13:18 | 44.57245 | 26.07987 | 318 ft | 2 kts | 353° |
| 2026-04-30 13:19 | 44.57230 | 26.07989 | 317 ft | 2 kts | 354° |
| 2026-04-30 13:19 | 44.57216 | 26.07991 | 317 ft | 1 kts | 5° |
| 2026-04-30 13:19 | 44.57203 | 26.07985 | 317 ft | 1 kts | 38° |
| 2026-04-30 13:19 | 44.57196 | 26.07972 | 317 ft | 1 kts | 70° |
| 2026-04-30 13:20 | 44.57194 | 26.07964 | 318 ft | 0 kts | 82° |
| 2026-04-30 13:20 | 44.57193 | 26.07955 | 318 ft | 1 kts | 84° |
| 2026-04-30 13:20 | 44.57193 | 26.07953 | 318 ft | 0 kts | 84° |
| 2026-04-30 13:25 | 44.57196 | 26.07981 | 318 ft | 7 kts | 84° |
| 2026-04-30 13:25 | 44.57215 | 26.08230 | 316 ft | 14 kts | 84° |
| 2026-04-30 13:26 | 44.57343 | 26.08488 | 314 ft | 12 kts | 354° |
| 2026-04-30 13:26 | 44.57503 | 26.08463 | 314 ft | 10 kts | 354° |
| 2026-04-30 13:27 | 44.57517 | 26.08462 | 314 ft | 0 kts | 354° |
| 2026-04-30 13:32 | 44.57521 | 26.08461 | 314 ft | 3 kts | 355° |
| 2026-04-30 13:32 | 44.57683 | 26.08667 | 314 ft | 36 kts | 83° |
| 2026-04-30 13:33 | 44.57848 | 26.10771 | 325 ft | 149 kts | 82° |
| 2026-04-30 13:33 | 44.57915 | 26.13444 | 649 ft | 130 kts | 84° |
| 2026-04-30 13:34 | 44.57925 | 26.14721 | 956 ft | 145 kts | 83° |
| 2026-04-30 13:34 | 44.58483 | 26.19153 | 3175 ft | 169 kts | 73° |
| 2026-04-30 13:35 | 44.58701 | 26.20836 | 3666 ft | 186 kts | 82° |
| 2026-04-30 13:35 | 44.58929 | 26.24725 | 4699 ft | 218 kts | 81° |
| 2026-04-30 13:36 | 44.59188 | 26.29235 | 5799 ft | 250 kts | 96° |
| 2026-04-30 13:36 | 44.58476 | 26.31482 | 6550 ft | 263 kts | 126° |
| 2026-04-30 13:36 | 44.55209 | 26.33871 | 8213 ft | 279 kts | 166° |
| 2026-04-30 13:37 | 44.53284 | 26.34248 | 8983 ft | 284 kts | 171° |
| 2026-04-30 13:37 | 44.49344 | 26.34095 | 10493 ft | 292 kts | 200° |
| 2026-04-30 13:38 | 44.46714 | 26.29873 | 11526 ft | 313 kts | 255° |
| 2026-04-30 13:38 | 44.46459 | 26.26801 | 11855 ft | 327 kts | 268° |
| 2026-04-30 13:38 | 44.46343 | 26.20197 | 12855 ft | 344 kts | 268° |
| 2026-04-30 13:39 | 44.46119 | 26.13696 | 14557 ft | 334 kts | 265° |
| 2026-04-30 13:39 | 44.45960 | 26.07177 | 15765 ft | 339 kts | 266° |
| 2026-04-30 13:40 | 44.45875 | 26.03899 | 16280 ft | 343 kts | 266° |
| 2026-04-30 13:40 | 44.45794 | 26.00605 | 16986 ft | 339 kts | 266° |
| 2026-04-30 13:40 | 44.45714 | 25.97316 | 17732 ft | 335 kts | 266° |
| 2026-04-30 13:40 | 44.45631 | 25.94110 | 18339 ft | 334 kts | 265° |
| 2026-04-30 13:41 | 44.45543 | 25.90868 | 18933 ft | 334 kts | 266° |
| 2026-04-30 13:41 | 44.45447 | 25.87598 | 19429 ft | 337 kts | 265° |
| 2026-04-30 13:41 | 44.45359 | 25.84324 | 19873 ft | 340 kts | 266° |
| 2026-04-30 13:41 | 44.45266 | 25.81028 | 20464 ft | 340 kts | 265° |
| 2026-04-30 13:42 | 44.45168 | 25.77749 | 21033 ft | 340 kts | 264° |
| 2026-04-30 13:42 | 44.45074 | 25.74464 | 21679 ft | 337 kts | 265° |
| 2026-04-30 13:42 | 44.44882 | 25.67972 | 22762 ft | 337 kts | 264° |
| 2026-04-30 13:43 | 44.44780 | 25.64691 | 23282 ft | 337 kts | 265° |
| 2026-04-30 13:43 | 44.44678 | 25.61404 | 23742 ft | 339 kts | 264° |
| 2026-04-30 13:43 | 44.44576 | 25.58128 | 24250 ft | 339 kts | 264° |
| 2026-04-30 13:43 | 44.44474 | 25.54829 | 24753 ft | 340 kts | 264° |
| 2026-04-30 13:44 | 44.44373 | 25.51566 | 25123 ft | 343 kts | 265° |
| 2026-04-30 13:44 | 44.44273 | 25.48213 | 25601 ft | 343 kts | 265° |
| 2026-04-30 13:44 | 44.44174 | 25.44895 | 26081 ft | 343 kts | 265° |
| 2026-04-30 13:44 | 44.44072 | 25.41552 | 26499 ft | 345 kts | 264° |
| 2026-04-30 13:45 | 44.43858 | 25.34856 | 27276 ft | 349 kts | 264° |
| 2026-04-30 13:45 | 44.43747 | 25.31507 | 27726 ft | 349 kts | 264° |
| 2026-04-30 13:45 | 44.43634 | 25.28146 | 28147 ft | 350 kts | 264° |
| 2026-04-30 13:46 | 44.43519 | 25.24711 | 28544 ft | 351 kts | 264° |
| 2026-04-30 13:46 | 44.43404 | 25.21355 | 28948 ft | 352 kts | 264° |
| 2026-04-30 13:46 | 44.43286 | 25.17939 | 29320 ft | 354 kts | 264° |
| 2026-04-30 13:46 | 44.43167 | 25.14499 | 29779 ft | 353 kts | 264° |
| 2026-04-30 13:47 | 44.43046 | 25.11075 | 30117 ft | 355 kts | 264° |
| 2026-04-30 13:47 | 44.42924 | 25.07647 | 30497 ft | 355 kts | 264° |
| 2026-04-30 13:47 | 44.42800 | 25.04186 | 30814 ft | 357 kts | 264° |
| 2026-04-30 13:47 | 44.42671 | 25.00701 | 31021 ft | 361 kts | 264° |
| 2026-04-30 13:48 | 44.42542 | 24.97255 | 31255 ft | 364 kts | 264° |
| 2026-04-30 13:48 | 44.42410 | 24.93727 | 31497 ft | 367 kts | 264° |
| 2026-04-30 13:48 | 44.42274 | 24.90165 | 31646 ft | 373 kts | 265° |
| 2026-04-30 13:48 | 44.42137 | 24.86538 | 31969 ft | 373 kts | 265° |
| 2026-04-30 13:49 | 44.42001 | 24.82932 | 32130 ft | 378 kts | 265° |
| 2026-04-30 13:49 | 44.41862 | 24.79274 | 32385 ft | 380 kts | 265° |
| 2026-04-30 13:49 | 44.41721 | 24.75553 | 32546 ft | 385 kts | 265° |
| 2026-04-30 13:49 | 44.41579 | 24.71826 | 32792 ft | 386 kts | 265° |
| 2026-04-30 13:50 | 44.41435 | 24.68098 | 32942 ft | 390 kts | 266° |
| 2026-04-30 13:50 | 44.41137 | 24.60500 | 33394 ft | 392 kts | 266° |
| 2026-04-30 13:50 | 44.40987 | 24.56718 | 33620 ft | 392 kts | 266° |
| 2026-04-30 13:51 | 44.40836 | 24.52900 | 33870 ft | 393 kts | 267° |
| 2026-04-30 13:51 | 44.40683 | 24.49096 | 33986 ft | 396 kts | 267° |
| 2026-04-30 13:51 | 44.40527 | 24.45252 | 34174 ft | 399 kts | 267° |
| 2026-04-30 13:51 | 44.40369 | 24.41397 | 34460 ft | 398 kts | 267° |
| 2026-04-30 13:52 | 44.40210 | 24.37551 | 34700 ft | 399 kts | 267° |
| 2026-04-30 13:52 | 44.40048 | 24.33658 | 34869 ft | 402 kts | 266° |
| 2026-04-30 13:52 | 44.39884 | 24.29761 | 35156 ft | 402 kts | 266° |
| 2026-04-30 13:52 | 44.39720 | 24.25894 | 35486 ft | 401 kts | 266° |
| 2026-04-30 13:53 | 44.39554 | 24.22017 | 35727 ft | 401 kts | 266° |
| 2026-04-30 13:53 | 44.39387 | 24.18146 | 35847 ft | 405 kts | 267° |
| 2026-04-30 13:53 | 44.39216 | 24.14208 | 36108 ft | 405 kts | 266° |
| 2026-04-30 13:53 | 44.39044 | 24.10283 | 36263 ft | 406 kts | 266° |
| 2026-04-30 13:54 | 44.38694 | 24.02387 | 36285 ft | 407 kts | 267° |
| 2026-04-30 13:54 | 44.38342 | 23.94567 | 36292 ft | 406 kts | 267° |
| 2026-04-30 13:55 | 44.37982 | 23.86695 | 36279 ft | 405 kts | 267° |
| 2026-04-30 13:55 | 44.37619 | 23.78827 | 36288 ft | 408 kts | 267° |
| 2026-04-30 13:56 | 44.37250 | 23.70976 | 36294 ft | 407 kts | 267° |
| 2026-04-30 13:56 | 44.36873 | 23.63085 | 36281 ft | 409 kts | 267° |
| 2026-04-30 13:57 | 44.36490 | 23.55182 | 36301 ft | 410 kts | 267° |
| 2026-04-30 13:57 | 44.36103 | 23.47323 | 36284 ft | 408 kts | 267° |
| 2026-04-30 13:58 | 44.35507 | 23.35409 | 36263 ft | 412 kts | 267° |
| 2026-04-30 13:59 | 44.35101 | 23.27410 | 36272 ft | 422 kts | 266° |
| 2026-04-30 13:59 | 44.34680 | 23.19201 | 36293 ft | 423 kts | 266° |
| 2026-04-30 14:00 | 44.34255 | 23.11084 | 36284 ft | 421 kts | 266° |
| 2026-04-30 14:00 | 44.33602 | 22.98801 | 36299 ft | 423 kts | 266° |
| 2026-04-30 14:01 | 44.33160 | 22.90619 | 36293 ft | 424 kts | 266° |
| 2026-04-30 14:01 | 44.32711 | 22.82459 | 36297 ft | 423 kts | 266° |
| 2026-04-30 14:02 | 44.32258 | 22.74305 | 36306 ft | 424 kts | 266° |
| 2026-04-30 14:02 | 44.31797 | 22.66112 | 36302 ft | 424 kts | 266° |
| 2026-04-30 14:03 | 44.31337 | 22.57937 | 36276 ft | 424 kts | 267° |
| 2026-04-30 14:03 | 44.30555 | 22.49742 | 36288 ft | 428 kts | 261° |
| 2026-04-30 14:04 | 44.29319 | 22.41666 | 36270 ft | 427 kts | 260° |